Time;durP1;ratioP1;P1;durP2;ratioP2;P2;SDS_P1;SDS_P2;PMS_P1;PMS_P2;Temp;Humidity;BMP_temperature;BMP_pressure;BME280_temperature;BME280_humidity;BME280_pressure;Samples;Min_cycle;Max_cycle;Signal;HPM_P1;HPM_P2
2022/05/23 00:00:17;;;;;;;13.43;5.97;;;;;;;12.41;89.85;100921.13;5053342;28;20519;-77
2022/05/23 00:02:44;;;;;;;10.30;5.93;;;;;;;12.42;89.87;100914.78;5053897;28;20033;-77
2022/05/23 00:05:10;;;;;;;8.70;6.05;;;;;;;12.41;90.77;100913.97;5053810;28;20095;-77
2022/05/23 00:07:39;;;;;;;9.68;5.80;;;;;;;12.41;90.95;100913.97;5052491;28;20029;-77
2022/05/23 00:10:07;;;;;;;6.53;4.75;;;;;;;12.41;90.87;100913.13;5053907;28;20027;-78
2022/05/23 00:12:33;;;;;;;12.52;6.65;;;;;;;12.42;91.57;100909.44;5052199;28;20044;-77
2022/05/23 00:14:59;;;;;;;8.68;5.18;;;;;;;12.42;91.91;100904.97;5053495;28;20041;-76
2022/05/23 00:17:24;;;;;;;10.25;6.20;;;;;;;12.42;91.48;100896.97;5052005;28;20400;-77
2022/05/23 00:19:50;;;;;;;9.10;5.63;;;;;;;12.43;91.28;100893.28;5053172;28;20025;-77
2022/05/23 00:22:16;;;;;;;9.65;5.20;;;;;;;12.43;90.64;100884.47;5051677;28;20032;-76
2022/05/23 00:24:42;;;;;;;8.77;6.18;;;;;;;12.44;91.01;100872.81;5053304;28;20115;-76
2022/05/23 00:27:10;;;;;;;12.88;6.30;;;;;;;12.44;91.28;100860.28;5053169;28;20447;-77
2022/05/23 00:29:36;;;;;;;13.15;6.22;;;;;;;12.49;91.04;100865.19;5051897;28;20044;-76
2022/05/23 00:37:30;;;;;;;9.65;5.38;;;;;;;12.59;89.52;100849.94;5052844;28;20408;-78
2022/05/23 00:39:55;;;;;;;9.73;5.30;;;;;;;12.58;88.78;100853.59;5052860;28;20033;-78
2022/05/23 00:45:13;;;;;;;9.73;5.40;;;;;;;12.52;88.60;100851.53;5053215;28;20374;-77
2022/05/23 00:47:39;;;;;;;9.63;5.53;;;;;;;12.47;88.22;100848.47;5053356;28;20029;-78
2022/05/23 00:50:05;;;;;;;12.30;5.80;;;;;;;12.41;88.26;100847.25;5053456;28;20037;-79
2022/05/23 00:53:00;;;;;;;12.30;5.75;;;;;;;12.35;88.38;100847.84;5052558;28;20083;-79
2022/05/23 00:55:41;;;;;;;9.57;5.25;;;;;;;12.28;88.43;100844.94;5042850;28;20455;-78
2022/05/23 00:58:18;;;;;;;8.03;4.90;;;;;;;12.24;88.17;100840.06;5053250;28;20037;-78
2022/05/23 01:00:44;;;;;;;6.65;5.03;;;;;;;12.21;88.40;100835.88;5052975;28;20020;-78
2022/05/23 01:03:12;;;;;;;8.48;5.35;;;;;;;12.18;88.21;100838.81;5053158;28;20166;-78
2022/05/23 01:05:39;;;;;;;8.77;5.35;;;;;;;12.11;88.20;100832.44;5052369;28;20139;-78
2022/05/23 01:08:05;;;;;;;7.10;4.60;;;;;;;12.08;88.34;100830.06;5052599;28;20041;-78
2022/05/23 01:10:33;;;;;;;9.52;5.65;;;;;;;12.04;88.32;100832.16;5052182;28;20498;-79
2022/05/23 01:12:58;;;;;;;9.13;5.47;;;;;;;12.01;88.99;100818.31;5052288;28;20055;-77
2022/05/23 01:15:27;;;;;;;14.82;5.40;;;;;;;11.96;89.89;100826.75;5051968;28;20481;-78
2022/05/23 01:17:53;;;;;;;8.25;5.25;;;;;;;11.89;90.01;100828.31;5052592;28;20075;-78
2022/05/23 01:20:20;;;;;;;8.27;4.90;;;;;;;11.83;90.28;100832.38;5052097;28;20043;-79
2022/05/23 01:23:08;;;;;;;8.55;4.97;;;;;;;11.76;90.17;100823.28;5052354;28;20032;-78
2022/05/23 01:25:34;;;;;;;13.02;5.32;;;;;;;11.71;90.47;100833.56;5051782;28;20457;-77
2022/05/23 01:28:01;;;;;;;8.18;5.32;;;;;;;11.65;91.15;100827.81;5051979;28;20075;-77
2022/05/23 01:30:28;;;;;;;11.70;6.30;;;;;;;11.63;92.36;100827.13;5051779;28;20074;-77
2022/05/23 01:32:53;;;;;;;11.60;6.25;;;;;;;11.58;92.84;100832.06;5051638;28;20068;-77
2022/05/23 01:35:19;;;;;;;11.02;5.78;;;;;;;11.54;92.66;100825.34;5051602;28;20057;-78
2022/05/23 01:37:44;;;;;;;12.70;6.68;;;;;;;11.51;93.34;100823.00;5051894;28;20488;-77
2022/05/23 01:40:13;;;;;;;13.02;6.30;;;;;;;11.47;93.18;100819.75;5050548;28;20028;-77
2022/05/23 01:42:40;;;;;;;10.43;5.93;;;;;;;11.46;93.98;100822.56;5049524;28;20125;-76
2022/05/23 01:45:06;;;;;;;5.47;4.20;;;;;;;11.45;93.51;100820.91;5051833;28;20021;-76
2022/05/23 01:47:31;;;;;;;7.60;4.82;;;;;;;11.46;93.41;100817.25;5051053;28;20453;-76
2022/05/23 01:49:57;;;;;;;8.05;5.38;;;;;;;11.46;93.72;100812.78;5049947;28;20068;-77
2022/05/23 01:52:22;;;;;;;10.18;5.22;;;;;;;11.51;93.82;100822.13;5051100;28;20025;-78
2022/05/23 01:54:47;;;;;;;8.23;5.82;;;;;;;11.55;94.10;100823.53;5051495;28;20351;-76
2022/05/23 01:57:13;;;;;;;9.30;5.78;;;;;;;11.61;94.43;100823.78;5049863;28;20056;-76
2022/05/23 02:02:23;;;;;;;11.07;6.20;;;;;;;11.74;94.51;100810.13;5051271;28;20095;-76
2022/05/23 02:04:51;;;;;;;13.00;6.05;;;;;;;11.83;94.90;100813.72;5050213;28;20064;-76
2022/05/23 02:07:16;;;;;;;8.52;5.70;;;;;;;11.89;94.83;100810.47;5050576;28;20108;-79
2022/05/23 02:09:42;;;;;;;10.32;6.07;;;;;;;11.95;94.71;100809.91;5050591;28;20424;-79
2022/05/23 02:12:09;;;;;;;11.90;6.53;;;;;;;12.02;95.03;100810.16;5050689;28;20029;-79
2022/05/23 02:14:35;;;;;;;14.10;6.30;;;;;;;12.07;95.45;100810.53;5050019;28;20195;-79
2022/05/23 02:17:01;;;;;;;9.07;6.18;;;;;;;12.13;95.30;100811.78;5050026;28;20174;-78
2022/05/23 02:19:30;;;;;;;12.35;7.18;;;;;;;12.19;95.02;100811.16;5050042;28;20033;-78
2022/05/23 02:21:55;;;;;;;8.48;6.80;;;;;;;12.24;95.16;100805.38;5050146;28;20040;-79
2022/05/23 02:24:20;;;;;;;10.25;7.00;;;;;;;12.26;94.61;100793.56;5050357;28;20512;-78
2022/05/23 02:26:46;;;;;;;14.68;7.30;;;;;;;12.30;94.25;100792.28;5048546;28;20048;-78
2022/05/23 02:29:14;;;;;;;12.18;7.07;;;;;;;12.33;94.18;100785.78;5050291;28;20261;-79
2022/05/23 02:31:40;;;;;;;10.57;7.30;;;;;;;12.35;93.98;100781.16;5050221;28;20038;-78
2022/05/23 02:34:06;;;;;;;16.05;6.93;;;;;;;12.38;94.29;100772.84;5049829;28;20060;-79
2022/05/23 02:36:31;;;;;;;12.60;6.90;;;;;;;12.40;94.11;100775.38;5050038;28;20051;-78
2022/05/23 02:38:57;;;;;;;10.25;6.53;;;;;;;12.43;94.09;100761.72;5050650;28;20029;-79
2022/05/23 02:41:22;;;;;;;12.00;7.00;;;;;;;12.47;94.27;100755.91;5050412;28;20254;-78
2022/05/23 02:43:48;;;;;;;10.80;6.82;;;;;;;12.50;94.39;100757.44;5049853;28;20048;-79
2022/05/23 02:46:14;;;;;;;10.77;6.78;;;;;;;12.51;94.71;100751.97;5050257;28;20036;-78
2022/05/23 02:48:39;;;;;;;11.75;6.97;;;;;;;12.55;94.52;100751.66;5049877;28;20488;-78
2022/05/23 02:51:04;;;;;;;11.80;6.93;;;;;;;12.57;94.73;100747.84;5050179;28;20123;-79
2022/05/23 02:53:30;;;;;;;10.75;6.93;;;;;;;12.59;94.66;100745.00;5050385;28;20340;-78
2022/05/23 02:55:55;;;;;;;10.57;6.63;;;;;;;12.62;94.40;100731.34;5052766;28;20084;-78
2022/05/23 02:58:20;;;;;;;12.30;6.40;;;;;;;12.63;94.04;100728.53;5053988;28;20037;-78
2022/05/23 03:00:46;;;;;;;11.50;7.28;;;;;;;12.65;93.80;100723.03;5053727;28;20082;-78
2022/05/23 03:03:12;;;;;;;11.35;6.78;;;;;;;12.66;93.65;100717.53;5052147;28;20082;-79
2022/05/23 03:05:37;;;;;;;11.77;7.03;;;;;;;12.67;93.73;100705.03;5053654;28;20076;-79
2022/05/23 03:08:03;;;;;;;11.10;7.28;;;;;;;12.68;93.97;100696.84;5054093;28;20475;-78
2022/05/23 03:10:29;;;;;;;10.35;6.97;;;;;;;12.68;94.11;100702.19;5053776;28;20047;-78
2022/05/23 03:12:55;;;;;;;10.82;6.43;;;;;;;12.69;93.74;100685.19;5052279;28;20468;-78
2022/05/23 03:15:21;;;;;;;11.23;6.53;;;;;;;12.72;93.92;100688.53;5053408;28;20048;-77
2022/05/23 03:17:47;;;;;;;14.73;6.00;;;;;;;12.72;93.73;100686.72;5053632;28;20115;-79
2022/05/23 03:20:13;;;;;;;9.25;6.38;;;;;;;12.74;93.55;100675.88;5053540;28;20115;-79
2022/05/23 03:28:08;;;;;;;13.13;6.60;;;;;;;12.77;93.50;100664.91;5053562;28;20403;-79
2022/05/23 03:30:34;;;;;;;9.52;6.13;;;;;;;12.78;93.69;100663.88;5053382;28;20032;-77
2022/05/23 03:33:00;;;;;;;12.13;6.65;;;;;;;12.79;93.68;100649.53;5053230;28;20029;-78
2022/05/23 03:35:27;;;;;;;9.85;5.95;;;;;;;12.79;93.54;100647.69;5053515;28;20060;-78
2022/05/23 03:37:53;;;;;;;9.88;6.10;;;;;;;12.79;92.84;100649.53;5053215;28;20096;-78
2022/05/23 03:40:18;;;;;;;8.00;5.85;;;;;;;12.82;92.77;100649.22;5053307;28;20151;-78
2022/05/23 03:42:44;;;;;;;12.18;6.13;;;;;;;12.83;92.86;100641.06;5051695;28;20043;-78
2022/05/23 03:45:10;;;;;;;8.23;5.97;;;;;;;12.84;92.76;100642.75;5053113;28;20039;-78
2022/05/23 03:47:36;;;;;;;7.88;5.82;;;;;;;12.83;92.01;100635.72;5052737;28;20036;-78
2022/05/23 03:50:02;;;;;;;8.43;5.60;;;;;;;12.84;92.11;100633.91;5052991;28;20116;-78
2022/05/23 03:52:27;;;;;;;13.57;6.13;;;;;;;12.84;91.81;100624.06;5053281;28;20037;-78
2022/05/23 03:54:52;;;;;;;11.73;6.15;;;;;;;12.85;92.14;100620.41;5052674;28;20029;-78
2022/05/23 03:57:18;;;;;;;11.40;5.80;;;;;;;12.84;92.29;100616.03;5053194;28;20104;-78
2022/05/23 03:59:45;;;;;;;11.13;5.68;;;;;;;12.84;91.72;100609.88;5052576;28;20122;-78
2022/05/23 04:02:12;;;;;;;12.48;6.40;;;;;;;12.82;91.83;100611.84;5052777;28;20036;-79
2022/05/23 04:04:37;;;;;;;12.07;5.65;;;;;;;12.79;92.27;100607.66;5051350;28;20021;-78
2022/05/23 04:07:05;;;;;;;9.27;5.78;;;;;;;12.78;92.77;100606.00;5052266;28;20029;-78
2022/05/23 04:09:31;;;;;;;16.83;5.90;;;;;;;12.77;92.59;100598.97;5052871;28;20047;-78
2022/05/23 04:11:57;;;;;;;12.18;6.22;;;;;;;12.78;92.48;100606.00;5052871;28;20114;-78
2022/05/23 04:14:25;;;;;;;13.20;6.22;;;;;;;12.78;92.75;100603.34;5052479;28;20025;-78
2022/05/23 04:16:51;;;;;;;10.50;5.78;;;;;;;12.83;92.56;100602.84;5052500;28;20142;-78
2022/05/23 04:19:17;;;;;;;12.75;5.45;;;;;;;12.86;91.92;100603.34;5052113;28;20071;-77
2022/05/23 04:21:45;;;;;;;12.40;5.53;;;;;;;12.93;91.17;100610.72;5052114;28;20060;-77
2022/05/23 04:24:11;;;;;;;6.97;4.82;;;;;;;12.97;91.00;100606.75;5052567;28;20025;-77
2022/05/23 04:26:37;;;;;;;9.30;5.90;;;;;;;13.00;90.62;100604.59;5052223;28;20116;-78
2022/05/23 04:29:06;;;;;;;8.07;5.43;;;;;;;13.06;90.10;100605.78;5052315;28;20080;-78
2022/05/23 04:31:32;;;;;;;7.28;5.25;;;;;;;13.10;90.11;100596.44;5052191;28;20402;-78
2022/05/23 04:36:41;;;;;;;9.15;4.95;;;;;;;13.18;90.02;100596.50;5052431;28;20102;-78
2022/05/23 04:39:07;;;;;;;8.98;5.47;;;;;;;13.22;90.03;100594.31;5052204;28;20037;-78
2022/05/23 04:41:33;;;;;;;10.88;5.45;;;;;;;13.21;89.96;100582.81;5052025;28;20130;-78
2022/05/23 04:43:58;;;;;;;8.57;5.30;;;;;;;13.22;90.69;100570.28;5052247;28;20052;-78
2022/05/23 04:46:24;;;;;;;8.63;5.10;;;;;;;13.23;90.52;100563.94;5050640;28;20392;-78
2022/05/23 04:51:33;;;;;;;14.15;5.40;;;;;;;13.30;90.89;100556.94;5052181;28;20095;-78
2022/05/23 04:53:59;;;;;;;9.35;5.10;;;;;;;13.38;89.77;100556.97;5051852;28;20041;-78
2022/05/23 04:56:27;;;;;;;9.60;5.55;;;;;;;13.51;88.99;100552.97;5050664;28;20036;-77
2022/05/23 04:58:52;;;;;;;10.05;5.95;;;;;;;13.66;88.69;100553.16;5051346;28;20037;-78
2022/05/23 05:01:21;;;;;;;12.70;6.20;;;;;;;13.82;87.88;100555.84;5051764;28;20052;-78
2022/05/23 05:03:46;;;;;;;9.80;5.30;;;;;;;13.96;87.27;100553.50;5051540;28;20040;-77
2022/05/23 05:06:12;;;;;;;8.82;5.43;;;;;;;14.10;86.22;100558.19;5051019;28;20043;-78
2022/05/23 05:08:37;;;;;;;10.18;5.25;;;;;;;14.18;85.77;100547.47;5049454;28;20350;-78
2022/05/23 05:11:04;;;;;;;8.70;5.13;;;;;;;14.27;85.51;100545.59;5049773;28;20064;-76
2022/05/23 05:13:32;;;;;;;8.88;4.65;;;;;;;14.31;85.19;100536.22;5051133;28;20123;-77
2022/05/23 05:16:05;;;;;;;11.88;5.32;;;;;;;14.38;84.82;100536.41;5049551;28;20456;-77
2022/05/23 05:18:32;;;;;;;6.65;4.88;;;;;;;14.43;84.45;100534.84;5049966;28;20037;-77
2022/05/23 05:21:04;;;;;;;5.72;4.88;;;;;;;14.49;84.76;100527.97;5051001;28;20037;-77
2022/05/23 05:23:29;;;;;;;9.27;5.50;;;;;;;14.56;84.52;100534.31;5051298;28;20044;-78
2022/05/23 05:25:54;;;;;;;10.27;5.05;;;;;;;14.60;82.22;100527.63;5051136;28;20087;-79
2022/05/23 05:28:20;;;;;;;14.98;5.35;;;;;;;14.68;82.63;100520.59;5051137;28;20143;-79
2022/05/23 05:30:51;;;;;;;10.15;4.80;;;;;;;14.76;82.56;100525.91;5032645;28;20444;-76
2022/05/23 05:33:21;;;;;;;10.90;5.55;;;;;;;14.80;82.19;100516.53;5050812;28;20029;-79
2022/05/23 05:35:55;;;;;;;8.73;5.38;;;;;;;14.92;82.35;100515.13;5050231;28;20517;-78
2022/05/23 05:38:28;;;;;;;8.95;5.50;;;;;;;15.03;81.08;100508.53;5051138;28;20029;-77
2022/05/23 05:41:04;;;;;;;7.35;4.78;;;;;;;15.17;81.42;100506.94;5050607;28;20037;-77
2022/05/23 05:43:32;;;;;;;11.40;4.82;;;;;;;15.28;80.91;100509.19;5050816;28;20037;-77
2022/05/23 05:46:24;;;;;;;11.85;5.13;;;;;;;15.37;80.74;100499.25;5050621;28;20112;-77
2022/05/23 05:48:52;;;;;;;10.32;5.15;;;;;;;15.41;79.53;100494.41;5046844;28;20151;-77
2022/05/23 05:51:21;;;;;;;8.05;4.93;;;;;;;15.39;78.37;100494.56;5050657;28;20090;-78
2022/05/23 05:53:48;;;;;;;11.73;5.45;;;;;;;15.38;79.10;100494.75;5050135;28;20456;-79
2022/05/23 05:56:14;;;;;;;8.60;5.57;;;;;;;15.39;79.09;100491.91;5050498;28;20044;-78
2022/05/23 05:58:40;;;;;;;9.60;5.75;;;;;;;15.44;79.31;100494.03;5050635;28;20037;-78
2022/05/23 06:01:06;;;;;;;10.52;5.35;;;;;;;15.47;79.64;100488.31;5050389;28;20209;-79
2022/05/23 06:03:33;;;;;;;12.32;5.35;;;;;;;15.49;78.50;100495.13;5050358;28;20071;-78
2022/05/23 06:11:26;;;;;;;13.20;5.63;;;;;;;15.74;78.59;100476.16;5050379;28;20090;-78
2022/05/23 06:13:55;;;;;;;8.90;5.10;;;;;;;15.82;78.94;100477.97;5050115;28;20116;-77
2022/05/23 06:16:22;;;;;;;10.15;5.28;;;;;;;15.88;78.27;100479.09;5050131;28;20174;-78
2022/05/23 06:18:47;;;;;;;9.00;5.57;;;;;;;15.92;78.67;100480.41;5050062;28;20025;-78
2022/05/23 06:21:13;;;;;;;9.88;5.10;;;;;;;15.93;77.65;100474.84;5049538;28;20044;-79
2022/05/23 06:23:40;;;;;;;11.10;5.65;;;;;;;15.92;78.18;100472.34;5049691;28;20267;-79
2022/05/23 06:26:06;;;;;;;8.05;5.15;;;;;;;15.88;77.78;100471.06;5049653;28;20040;-78
2022/05/23 06:28:31;;;;;;;10.90;5.50;;;;;;;15.82;77.86;100464.56;5049613;28;20032;-78
2022/05/23 06:30:59;;;;;;;7.45;5.60;;;;;;;15.70;77.65;100461.44;5049547;28;20108;-79
2022/05/23 06:33:25;;;;;;;11.07;5.85;;;;;;;15.59;78.66;100464.59;5049998;28;20033;-79
2022/05/23 06:35:51;;;;;;;10.93;5.97;;;;;;;15.58;79.56;100455.69;5050497;28;20057;-79
2022/05/23 06:38:16;;;;;;;9.23;5.45;;;;;;;15.65;80.33;100462.00;5050122;28;20139;-79
2022/05/23 06:40:42;;;;;;;10.68;6.07;;;;;;;15.74;78.57;100460.09;5050597;28;20037;-79
2022/05/23 06:43:08;;;;;;;10.20;5.88;;;;;;;15.82;77.49;100459.19;5050144;28;20438;-79
2022/05/23 06:45:34;;;;;;;11.48;6.07;;;;;;;15.99;78.83;100458.03;5050108;28;20112;-78
2022/05/23 06:47:59;;;;;;;7.47;5.90;;;;;;;16.11;76.91;100458.41;5050078;28;20060;-79
2022/05/23 06:50:24;;;;;;;12.63;6.30;;;;;;;16.38;78.38;100450.72;5050284;28;20033;-80
2022/05/23 06:52:50;;;;;;;11.57;5.97;;;;;;;16.66;76.00;100450.00;5049108;28;20037;-79
2022/05/23 06:55:15;;;;;;;10.60;6.10;;;;;;;16.91;73.50;100448.69;5050000;28;20055;-79
2022/05/23 06:57:40;;;;;;;11.05;5.60;;;;;;;17.14;74.12;100453.06;5048650;28;20176;-79
2022/05/23 07:00:09;;;;;;;10.30;5.93;;;;;;;17.33;72.44;100446.22;5049962;28;20029;-79
2022/05/23 07:02:38;;;;;;;9.35;5.97;;;;;;;17.41;71.75;100450.63;5049920;28;20075;-79
2022/05/23 07:13:16;;;;;;;14.15;6.70;;;;;;;17.39;70.61;100436.50;5050050;28;20130;-78
2022/05/23 07:15:47;;;;;;;12.68;6.55;;;;;;;17.38;72.62;100440.25;5049507;28;20515;-78
2022/05/23 07:18:17;;;;;;;9.80;6.75;;;;;;;17.32;70.16;100432.97;5050282;28;20116;-79
2022/05/23 07:20:44;;;;;;;10.90;6.78;;;;;;;17.42;71.05;100436.97;5050099;28;20041;-78
2022/05/23 07:23:10;;;;;;;8.55;6.13;;;;;;;17.60;70.77;100447.25;5050178;28;20187;-78
2022/05/23 07:25:36;;;;;;;12.13;6.57;;;;;;;17.79;69.79;100429.59;5050221;28;20514;-79
2022/05/23 07:28:01;;;;;;;10.73;6.63;;;;;;;17.96;70.44;100427.47;5049721;28;20061;-78
2022/05/23 07:30:28;;;;;;;13.85;6.40;;;;;;;18.13;68.62;100421.75;5049924;28;20053;-79
2022/05/23 07:32:54;;;;;;;8.40;6.45;;;;;;;18.30;69.41;100427.63;5048200;28;20451;-78
2022/05/23 07:35:20;;;;;;;11.38;6.72;;;;;;;18.49;67.82;100426.06;5048995;28;20078;-78
2022/05/23 07:37:45;;;;;;;15.30;7.13;;;;;;;18.68;66.89;100427.19;5049645;28;20045;-79
2022/05/23 07:40:12;;;;;;;11.85;6.93;;;;;;;18.90;64.03;100422.50;5047649;28;20033;-79
2022/05/23 07:42:37;;;;;;;12.43;6.55;;;;;;;19.11;64.40;100417.94;5052899;28;20102;-79
2022/05/23 07:45:05;;;;;;;9.55;7.10;;;;;;;19.25;62.71;100413.41;5052956;28;20045;-78
2022/05/23 07:47:31;;;;;;;13.05;7.70;;;;;;;19.41;64.13;100415.69;5052848;28;20307;-79
2022/05/23 07:49:56;;;;;;;17.52;7.18;;;;;;;19.44;63.56;100417.97;5053159;28;20082;-79
2022/05/23 07:52:22;;;;;;;11.48;6.60;;;;;;;19.43;63.92;100412.78;5052476;28;20366;-79
2022/05/23 08:00:33;;;;;;;16.85;6.85;;;;;;;19.56;64.39;100396.59;5051509;28;20048;-77
2022/05/23 08:03:02;;;;;;;11.73;6.80;;;;;;;19.45;62.99;100399.91;5053125;28;20033;-77
2022/05/23 08:05:27;;;;;;;12.35;7.63;;;;;;;19.63;63.91;100407.38;5051481;28;20359;-77
2022/05/23 08:07:53;;;;;;;11.88;7.13;;;;;;;19.85;64.26;100402.59;5052829;28;20061;-79
2022/05/23 08:10:18;;;;;;;12.30;6.93;;;;;;;20.01;61.71;100399.44;5052616;28;20036;-79
2022/05/23 08:12:58;;;;;;;9.93;6.97;;;;;;;20.11;63.27;100396.31;5050878;28;20036;-80
2022/05/23 08:15:26;;;;;;;12.38;7.10;;;;;;;20.28;63.06;100387.75;5052687;28;20029;-79
2022/05/23 08:17:52;;;;;;;15.82;7.32;;;;;;;20.46;58.96;100387.03;5052561;28;20064;-79
2022/05/23 08:20:17;;;;;;;15.27;6.90;;;;;;;20.65;59.25;100379.88;5050764;28;20478;-79
2022/05/23 08:22:44;;;;;;;12.27;6.90;;;;;;;20.80;57.29;100382.31;5050680;28;20033;-78
2022/05/23 08:25:11;;;;;;;13.48;7.13;;;;;;;21.00;59.88;100374.03;5051937;28;20127;-77
2022/05/23 08:27:36;;;;;;;12.90;7.05;;;;;;;21.03;58.88;100377.13;5034097;28;20441;-78
2022/05/23 08:30:04;;;;;;;13.93;7.07;;;;;;;21.39;58.86;100370.19;5052345;28;20029;-78
2022/05/23 08:32:30;;;;;;;15.35;7.30;;;;;;;21.81;55.63;100366.88;5051897;28;20082;-78
2022/05/23 08:34:55;;;;;;;19.05;7.90;;;;;;;22.29;55.91;100357.19;5052028;28;20461;-78
2022/05/23 08:37:20;;;;;;;13.43;6.60;;;;;;;22.50;54.71;100348.56;5051971;28;20372;-78
2022/05/23 08:39:47;;;;;;;13.02;7.10;;;;;;;22.80;54.13;100347.72;5051818;28;20048;-78
2022/05/23 08:42:56;;;;;;;12.23;6.75;;;;;;;22.82;53.82;100342.88;5050519;28;20040;-78
2022/05/23 08:45:34;;;;;;;17.70;6.90;;;;;;;22.79;53.35;100339.81;5028902;28;20176;-78
2022/05/23 08:48:17;;;;;;;18.52;7.60;;;;;;;22.54;53.96;100338.06;5050422;28;20468;-79
2022/05/23 08:50:59;;;;;;;12.98;7.05;;;;;;;22.26;56.06;100339.47;5051641;28;20040;-78
2022/05/23 08:53:53;;;;;;;15.80;6.68;;;;;;;22.25;57.06;100340.53;5051658;28;20056;-78
2022/05/23 08:56:33;;;;;;;17.25;7.32;;;;;;;22.18;55.70;100337.91;5051607;28;20044;-79
2022/05/23 08:59:00;;;;;;;13.05;6.90;;;;;;;22.52;55.47;100341.00;5050485;28;20120;-78
2022/05/23 09:01:44;;;;;;;12.52;6.82;;;;;;;22.59;54.48;100332.00;5051660;28;20112;-78
2022/05/23 09:04:15;;;;;;;13.48;7.03;;;;;;;22.42;54.94;100324.47;5051524;28;20072;-79
2022/05/23 09:06:49;;;;;;;13.05;7.65;;;;;;;22.00;55.36;100319.81;5051864;28;20120;-78
2022/05/23 09:09:19;;;;;;;21.45;7.60;;;;;;;21.88;56.24;100316.19;5051463;28;20095;-78
2022/05/23 09:11:47;;;;;;;16.42;7.70;;;;;;;21.64;56.79;100312.50;5051536;28;20021;-79
2022/05/23 09:14:16;;;;;;;18.38;8.25;;;;;;;21.55;57.10;100311.97;5051675;28;20029;-78
2022/05/23 09:16:47;;;;;;;15.23;7.80;;;;;;;21.43;59.27;100313.75;5051483;28;20136;-78
2022/05/23 09:19:39;;;;;;;;;;;;;;;21.38;58.56;100303.59;5051748;28;20033;-78
2022/05/23 09:22:12;;;;;;;14.95;8.15;;;;;;;21.33;56.90;100305.31;5050790;28;19915;-79
2022/05/23 09:24:58;;;;;;;11.23;7.90;;;;;;;21.36;58.50;100305.69;5050949;28;20111;-78
2022/05/23 09:27:39;;;;;;;16.52;8.20;;;;;;;20.92;58.80;100302.97;5049677;28;20167;-78
2022/05/23 09:30:12;;;;;;;12.80;8.63;;;;;;;20.88;60.82;100298.22;5050987;28;20437;-78
2022/05/23 09:32:40;;;;;;;20.48;8.32;;;;;;;20.84;60.08;100294.28;5051221;28;20433;-78
2022/05/23 09:35:26;;;;;;;11.23;7.75;;;;;;;20.91;61.96;100287.78;5050602;28;20049;-78
2022/05/23 09:38:14;;;;;;;12.93;8.20;;;;;;;20.89;61.49;100284.47;5051064;28;20028;-78
2022/05/23 09:40:39;;;;;;;13.85;8.85;;;;;;;20.73;62.77;100282.31;5050847;28;20530;-78
2022/05/23 09:49:15;;;;;;;17.23;8.82;;;;;;;20.51;66.08;100252.94;5050751;28;20110;-78
2022/05/23 09:51:47;;;;;;;;;;;;;;;20.39;63.95;100254.66;5051104;28;20033;-78
2022/05/23 09:54:17;;;;;;;;;;;;;;;20.29;65.85;100255.16;5050906;28;19966;-78
2022/05/23 09:56:42;;;;;;;14.68;9.80;;;;;;;20.30;67.43;100256.78;5050443;28;19922;-78
2022/05/23 09:59:22;;;;;;;27.33;10.05;;;;;;;20.18;64.58;100250.44;5050548;28;20033;-78
2022/05/23 10:01:47;;;;;;;16.15;9.30;;;;;;;20.15;67.92;100249.00;5050485;28;20025;-78
2022/05/23 10:04:28;;;;;;;13.85;8.70;;;;;;;20.15;68.35;100240.88;5050511;28;20433;-79
2022/05/23 10:06:54;;;;;;;18.40;9.25;;;;;;;20.22;68.99;100240.88;5050452;28;20029;-81
2022/05/23 10:09:37;;;;;;;13.20;8.65;;;;;;;20.38;67.35;100226.00;5050148;28;20091;-78
2022/05/23 10:12:09;;;;;;;13.55;8.82;;;;;;;20.57;66.60;100221.50;5050485;28;20033;-78
2022/05/23 10:14:47;;;;;;;15.45;9.13;;;;;;;20.71;64.72;100217.66;5050056;28;20033;-78
2022/05/23 10:17:34;;;;;;;17.30;8.98;;;;;;;20.72;62.09;100224.75;5049897;28;20025;-78
2022/05/23 10:20:39;;;;;;;16.67;8.80;;;;;;;20.71;62.70;100217.66;5050448;28;20077;-78
2022/05/23 10:23:12;;;;;;;17.58;9.10;;;;;;;20.80;63.01;100209.28;5027311;28;20037;-78
2022/05/23 10:25:43;;;;;;;17.92;8.68;;;;;;;20.95;59.67;100210.59;5047142;28;20103;-78
2022/05/23 10:28:15;;;;;;;15.43;9.30;;;;;;;20.95;59.96;100199.75;5048766;28;20372;-79
2022/05/23 10:30:51;;;;;;;18.23;8.85;;;;;;;21.27;60.10;100199.66;5050055;28;20057;-78
2022/05/23 10:33:18;;;;;;;17.50;9.00;;;;;;;21.60;59.24;100192.22;5050043;28;20029;-80
2022/05/23 10:35:52;;;;;;;17.20;9.70;;;;;;;21.89;61.71;100195.19;5049894;28;20061;-79
2022/05/23 10:44:32;;;;;;;20.00;11.57;;;;;;;22.50;59.54;100179.69;5049549;28;20076;-78
2022/05/23 10:47:11;;;;;;;14.45;10.15;;;;;;;22.82;57.64;100179.34;5049550;28;20028;-78
2022/05/23 10:49:50;;;;;;;19.25;11.45;;;;;;;22.93;57.74;100180.41;5049780;28;20039;-78
2022/05/23 10:52:42;;;;;;;20.38;10.63;;;;;;;22.77;57.28;100171.91;5049857;28;20028;-78
2022/05/23 10:55:32;;;;;;;17.65;10.23;;;;;;;22.56;55.63;100167.91;5049871;28;20021;-78
2022/05/23 10:58:18;;;;;;;17.85;10.55;;;;;;;22.63;57.55;100162.38;5048968;28;20060;-78
2022/05/23 11:01:08;;;;;;;15.32;10.27;;;;;;;23.03;55.48;100167.06;5049562;28;20349;-78
2022/05/23 11:03:43;;;;;;;14.27;10.05;;;;;;;23.73;53.29;100157.09;5037772;28;20111;-79
2022/05/23 11:06:22;;;;;;;16.92;10.00;;;;;;;24.38;51.20;100149.53;5049476;28;20037;-78
2022/05/23 11:08:51;;;;;;;32.15;10.65;;;;;;;24.63;49.12;100141.84;5050193;28;20048;-79
2022/05/23 11:11:51;;;;;;;16.98;10.05;;;;;;;24.59;50.30;100129.81;5049768;28;20033;-78
2022/05/23 11:14:36;;;;;;;16.85;9.35;;;;;;;24.56;50.98;100132.19;5032915;28;20041;-79
2022/05/23 11:17:27;;;;;;;15.88;9.43;;;;;;;24.35;50.04;100131.84;5052428;28;20029;-78
2022/05/23 11:20:03;;;;;;;;;;;;;;;24.12;52.23;100124.69;5054100;28;20151;-78
2022/05/23 11:22:34;;;;;;;13.77;8.10;;;;;;;23.99;52.04;100122.28;5051953;28;19915;-79
2022/05/23 11:24:59;;;;;;;;;;;;;;;23.42;51.04;100123.94;5053898;28;20044;-78
2022/05/23 11:35:48;;;;;;;12.70;7.95;;;;;;;22.94;53.75;100119.66;5053140;28;20079;-79
2022/05/23 11:38:19;;;;;;;17.60;8.07;;;;;;;22.86;53.96;100115.44;5053223;28;20118;-79
2022/05/23 11:41:10;;;;;;;11.77;8.48;;;;;;;22.78;54.74;100110.38;5051781;28;20445;-79
2022/05/23 11:43:35;;;;;;;14.60;8.73;;;;;;;22.74;55.82;100106.50;5053296;28;20096;-78
2022/05/23 11:46:05;;;;;;;12.32;8.70;;;;;;;22.82;56.37;100098.81;5051549;28;20097;-78
2022/05/23 11:48:45;;;;;;;16.33;9.50;;;;;;;22.80;56.45;100092.00;5052823;28;20470;-78
2022/05/23 11:51:14;;;;;;;15.20;8.77;;;;;;;22.73;56.26;100083.16;5053069;28;20032;-79
2022/05/23 11:53:44;;;;;;;14.75;9.00;;;;;;;22.74;57.42;100077.50;5052699;28;20068;-78
2022/05/23 11:56:31;;;;;;;16.40;9.65;;;;;;;22.81;55.84;100067.34;5053244;28;20090;-79
2022/05/23 11:58:57;;;;;;;17.38;9.35;;;;;;;22.74;56.39;100061.22;5053983;28;20064;-78
2022/05/23 12:01:26;;;;;;;13.55;8.45;;;;;;;22.69;56.45;100061.94;5054070;28;20040;-79
2022/05/23 12:03:55;;;;;;;15.38;9.82;;;;;;;22.63;55.56;100057.47;5053438;28;20033;-78
2022/05/23 12:06:23;;;;;;;21.38;10.15;;;;;;;22.68;56.23;100054.88;5052942;28;20029;-79
2022/05/23 12:09:01;;;;;;;20.95;9.65;;;;;;;22.81;56.43;100052.94;5051203;28;20047;-78
2022/05/23 12:11:29;;;;;;;21.17;10.70;;;;;;;22.91;54.84;100049.63;5052261;28;20055;-78
2022/05/23 12:13:59;;;;;;;16.17;9.57;;;;;;;23.04;53.62;100050.19;5052350;28;20125;-78
2022/05/23 12:16:31;;;;;;;21.83;10.60;;;;;;;23.09;53.68;100045.91;5052500;28;20035;-78
2022/05/23 12:19:05;;;;;;;21.23;11.40;;;;;;;22.67;52.86;100038.84;5052110;28;20036;-78
2022/05/23 12:21:36;;;;;;;25.75;11.27;;;;;;;22.37;54.42;100037.09;5052492;28;20461;-78
2022/05/23 12:24:13;;;;;;;;;;;;;;;21.89;56.31;100032.72;5052803;28;20102;-78
2022/05/23 12:26:40;;;;;;;16.67;8.90;;;;;;;21.43;56.45;100037.75;5052007;28;20332;-78
2022/05/23 12:29:32;;;;;;;13.05;8.82;;;;;;;20.78;58.08;100034.63;5050678;28;20028;-78
2022/05/23 12:32:06;;;;;;;14.43;9.18;;;;;;;20.22;59.93;100028.31;5052437;28;20100;-79